Terminal Aerodrome Forecast
Issued by NWS Northern Indiana

Home | Current Version | Previous Version | Text Only | Print | Product List | Glossary Off
Versions: 1 2 3 4 5 6 7 8 9 10 11 12 13 14

000
FTUS43 KIWX 250400 AAA
TAFFWA
TAF AMD
KFWA 250438Z 2505/2524 11012KT P6SM VCSH OVC080
      TEMPO 2510/2514 P6SM -SHRA OVC040
     FM251400 30017G25KT P6SM SCT250=

USA.gov is the U.S. government's official web portal to all federal, state and local government web resources and services.